Time;durP1;ratioP1;P1;durP2;ratioP2;P2;SDS_P1;SDS_P2;PMS_P1;PMS_P2;Temp;Humidity;BMP_temperature;BMP_pressure;BME280_temperature;BME280_humidity;BME280_pressure;Samples;Min_cycle;Max_cycle;Signal;HPM_P1;HPM_P2
2022/06/10 00:00:56;;;;;;;;;3.00;3.00;;;;;23.17;41.63;101659.78;5077376;28;46066;-50
2022/06/10 00:03:25;;;;;;;;;4.00;4.00;;;;;23.18;41.55;101655.34;5076258;27;45869;-47
2022/06/10 00:05:57;;;;;;;;;6.00;4.00;;;;;23.17;41.38;101646.56;5077529;28;45394;-49
2022/06/10 00:08:28;;;;;;;;;6.00;4.00;;;;;23.17;41.32;101649.19;5077622;28;45239;-48
2022/06/10 00:10:55;;;;;;;;;5.00;4.00;;;;;23.18;41.30;101650.03;5077198;28;46762;-48
2022/06/10 00:13:23;;;;;;;;;3.75;3.75;;;;;23.17;41.26;101651.84;5077281;28;45402;-48
2022/06/10 00:15:49;;;;;;;;;5.00;4.00;;;;;23.17;41.65;101648.31;5077460;28;45312;-48
2022/06/10 00:18:15;;;;;;;;;5.25;4.00;;;;;23.17;41.32;101654.50;5077455;28;45177;-47
2022/06/10 00:20:41;;;;;;;;;5.25;4.25;;;;;23.16;41.63;101646.63;5076980;28;45393;-48
2022/06/10 00:23:07;;;;;;;;;4.00;4.00;;;;;23.16;41.52;101646.63;5077353;28;45302;-47
2022/06/10 00:25:33;;;;;;;;;5.75;4.50;;;;;23.17;41.32;101653.63;5077031;28;45508;-47
2022/06/10 00:27:59;;;;;;;;;7.00;4.50;;;;;23.16;41.60;101652.78;5077237;28;45490;-49
2022/06/10 00:30:28;;;;;;;;;7.00;5.50;;;;;23.16;41.72;101652.78;5076804;28;46104;-49
2022/06/10 00:32:55;;;;;;;;;5.00;5.00;;;;;23.16;41.47;101644.84;5058483;28;46139;-47
2022/06/10 00:35:20;;;;;;;;;4.25;4.00;;;;;23.13;41.65;101637.06;5077159;28;45336;-50
2022/06/10 00:37:45;;;;;;;;;8.25;5.25;;;;;23.16;41.75;101650.13;5077065;28;45522;-47
2022/06/10 00:40:22;;;;;;;;;4.00;4.00;;;;;23.15;41.53;101648.44;5076519;28;46041;-49
2022/06/10 00:42:47;;;;;;;;;5.50;4.00;;;;;23.15;41.64;101648.44;5076618;28;45959;-47
2022/06/10 00:46:04;;;;;;;;;4.00;4.00;;;;;23.16;41.77;101643.97;5076945;28;45346;-49
2022/06/10 00:48:43;;;;;;;;;5.25;4.25;;;;;23.15;41.75;101640.50;5064483;28;45570;-55
2022/06/10 00:51:17;;;;;;;;;5.75;5.75;;;;;23.14;41.79;101641.41;5076742;28;45350;-48
2022/06/10 00:53:44;;;;;;;;;5.75;5.00;;;;;23.15;41.76;101639.66;5076590;28;45288;-48
2022/06/10 00:56:16;;;;;;;;;5.50;5.00;;;;;23.14;41.72;101637.94;5076992;28;45234;-47
2022/06/10 00:58:50;;;;;;;;;3.75;3.75;;;;;23.13;41.72;101629.13;5076841;28;45438;-48
2022/06/10 01:01:19;;;;;;;;;6.00;5.00;;;;;23.14;41.83;101625.56;5076443;28;46267;-47
2022/06/10 01:03:44;;;;;;;;;3.50;3.50;;;;;23.12;41.48;101631.88;5076513;28;45708;-49
2022/06/10 01:06:09;;;;;;;;;7.75;3.00;;;;;23.13;41.54;101625.66;5076456;28;52315;-47
2022/06/10 01:08:36;;;;;;;;;6.00;6.00;;;;;23.13;42.00;101630.94;5076753;28;45716;-47
2022/06/10 01:11:23;;;;;;;;;5.00;5.00;;;;;23.12;41.67;101622.13;5076439;28;46133;-47
2022/06/10 01:14:09;;;;;;;;;4.50;4.50;;;;;23.10;41.72;101624.00;5077869;28;45463;-49
2022/06/10 01:17:06;;;;;;;;;4.75;4.75;;;;;23.10;41.95;101621.38;5080229;28;45314;-53
2022/06/10 01:19:48;;;;;;;;;5.00;5.00;;;;;23.12;41.92;101627.44;5080219;28;45219;-54
2022/06/10 01:22:40;;;;;;;;;5.00;4.25;;;;;23.11;41.96;101636.28;5095665;27;45712;-51
2022/06/10 01:25:06;;;;;;;;;5.75;4.25;;;;;23.11;41.85;101628.38;5079652;28;45913;-54
2022/06/10 01:28:03;;;;;;;;;2.00;2.00;;;;;23.11;42.12;101633.66;5079954;28;45294;-56
2022/06/10 01:30:57;;;;;;;;;4.50;4.50;;;;;23.07;41.94;101629.47;5079958;28;45328;-52
2022/06/10 01:33:37;;;;;;;;;5.50;5.50;;;;;23.11;41.71;101627.53;5079672;28;47375;-51
2022/06/10 01:36:12;;;;;;;;;4.25;4.25;;;;;23.11;41.93;101625.72;5079843;28;45345;-47
2022/06/10 01:38:49;;;;;;;;;7.00;5.00;;;;;23.11;41.94;101624.88;5079930;28;45247;-47
2022/06/10 01:41:50;;;;;;;;;4.00;4.00;;;;;23.10;41.89;101626.66;5079953;28;45426;-49
2022/06/10 01:44:49;;;;;;;;;7.00;3.75;;;;;23.09;42.03;101622.31;5067171;28;45540;-51
2022/06/10 01:47:20;;;;;;;;;6.50;4.50;;;;;23.10;41.99;101629.28;5079462;28;45272;-50
2022/06/10 01:49:55;;;;;;;;;5.25;5.25;;;;;23.08;42.01;101620.63;5079502;28;45193;-55
2022/06/10 01:52:36;;;;;;;;;3.25;3.25;;;;;23.09;42.07;101635.53;5079754;28;45323;-53
2022/06/10 01:55:13;;;;;;;;;5.00;4.00;;;;;23.09;42.18;101624.09;5079133;28;46635;-53
2022/06/10 01:57:46;;;;;;;;;6.75;4.00;;;;;23.09;42.12;101632.91;5079221;28;45960;-55
2022/06/10 02:00:16;;;;;;;;;4.75;4.75;;;;;23.10;42.08;101633.75;5079563;28;45358;-49
2022/06/10 02:02:56;;;;;;;;;4.75;4.50;;;;;23.08;41.80;101628.53;5079758;27;45189;-50
2022/06/10 02:05:24;;;;;;;;;4.00;3.50;;;;;23.08;41.69;101633.84;5078989;28;46181;-52
2022/06/10 02:07:58;;;;;;;;;5.00;5.00;;;;;23.09;42.12;101632.91;5079262;28;45334;-54
2022/06/10 02:10:37;;;;;;;;;4.25;4.25;;;;;23.09;42.09;101632.91;5079330;28;45456;-52
2022/06/10 02:13:15;;;;;;;;;5.00;5.00;;;;;23.08;42.06;101636.47;5079411;28;45359;-55
2022/06/10 02:15:49;;;;;;;;;4.50;3.50;;;;;23.08;42.12;101641.78;5079176;28;46268;-53
2022/06/10 02:18:21;;;;;;;;;6.50;5.00;;;;;23.08;42.12;101630.31;5079234;28;45247;-55
2022/06/10 02:20:56;;;;;;;;;7.00;5.00;;;;;23.08;41.87;101641.78;5079169;28;45201;-55
2022/06/10 02:23:31;;;;;;;;;4.25;3.00;;;;;23.08;42.10;101636.47;5060877;28;45371;-53
2022/06/10 02:25:59;;;;;;;;;7.00;5.00;;;;;23.05;42.04;101626.06;5078069;28;45288;-56
2022/06/10 02:28:39;;;;;;;;;5.50;3.75;;;;;23.08;41.94;101625.91;5078800;28;45902;-54
2022/06/10 02:31:12;;;;;;;;;4.25;4.25;;;;;23.07;42.39;101629.47;5078856;28;45444;-55
2022/06/10 02:33:38;;;;;;;;;5.50;5.00;;;;;23.07;42.30;101623.31;5079126;28;45399;-53
2022/06/10 02:36:19;;;;;;;;;5.00;3.75;;;;;23.08;42.02;101632.97;5078609;28;46380;-48
2022/06/10 02:39:03;;;;;;;;;5.00;4.25;;;;;23.07;42.17;101634.78;5078885;28;45270;-54
2022/06/10 02:41:43;;;;;;;;;6.25;6.00;;;;;23.07;41.89;101639.19;5094640;27;45262;-54
2022/06/10 02:44:19;;;;;;;;;4.50;4.50;;;;;23.05;41.97;101636.63;5079164;28;45481;-53
2022/06/10 02:46:58;;;;;;;;;6.50;4.00;;;;;23.06;42.14;101638.34;5078961;28;45415;-49
2022/06/10 02:49:23;;;;;;;;;4.50;4.00;;;;;23.05;41.98;101644.56;5078525;28;45446;-49
2022/06/10 02:51:49;;;;;;;;;4.00;4.00;;;;;23.05;42.18;101639.28;5078649;28;45338;-49
2022/06/10 02:54:27;;;;;;;;;6.50;5.25;;;;;23.07;42.50;101647.13;5079108;28;45379;-48
2022/06/10 02:56:52;;;;;;;;;5.75;4.50;;;;;23.06;42.53;101648.06;5078500;28;45988;-47
2022/06/10 03:02:08;;;;;;;;;6.00;5.00;;;;;23.05;42.04;101656.91;5078368;28;45411;-48
2022/06/10 03:05:12;;;;;;;;;4.25;4.25;;;;;23.05;42.01;101651.63;5094459;27;45509;-49
2022/06/10 03:07:48;;;;;;;;;5.00;5.00;;;;;23.04;41.99;101650.78;5077894;27;45277;-48
2022/06/10 03:10:39;;;;;;;;;5.25;4.00;;;;;23.05;42.25;101647.22;5078670;28;45754;-48
2022/06/10 03:13:08;;;;;;;;;4.00;4.00;;;;;23.05;42.02;101662.19;5078394;28;45390;-52
2022/06/10 03:15:58;;;;;;;;;4.25;4.25;;;;;23.05;42.09;101652.50;5077931;28;45259;-48
2022/06/10 03:18:23;;;;;;;;;7.25;5.25;;;;;23.04;42.04;101653.44;5077915;28;46237;-54
2022/06/10 03:21:07;;;;;;;;;6.67;4.33;;;;;23.04;42.44;101656.06;5078163;28;45319;-52
2022/06/10 03:23:48;;;;;;;;;8.00;4.50;;;;;23.01;42.46;101656.22;5059692;28;45458;-53
2022/06/10 03:26:39;;;;;;;;;4.25;4.00;;;;;23.02;42.55;101657.94;5078541;28;45433;-55
2022/06/10 03:29:17;;;;;;;;;4.00;4.00;;;;;23.03;42.28;101664.94;5077772;28;46017;-53
2022/06/10 03:31:51;;;;;;;;;4.00;4.00;;;;;23.01;42.02;101662.38;5077943;28;45203;-55
2022/06/10 03:34:22;;;;;;;;;5.50;3.25;;;;;23.03;42.17;101664.09;5078019;28;45279;-54
2022/06/10 03:36:50;;;;;;;;;4.25;4.00;;;;;23.01;42.09;101667.69;5078445;28;45307;-54
2022/06/10 03:39:19;;;;;;;;;3.50;3.50;;;;;23.03;42.39;101664.09;5093551;27;46218;-54
2022/06/10 03:42:03;;;;;;;;;4.25;3.75;;;;;23.03;42.12;101658.81;5078104;28;45243;-55
2022/06/10 03:44:29;;;;;;;;;6.00;4.00;;;;;23.03;42.44;101664.09;5077809;28;45411;-55
2022/06/10 03:46:56;;;;;;;;;5.75;4.00;;;;;23.01;42.06;101659.75;5059757;28;45209;-54
2022/06/10 03:49:30;;;;;;;;;6.50;3.00;;;;;23.00;42.34;101665.09;5077395;28;45635;-49
2022/06/10 03:51:57;;;;;;;;;5.25;4.50;;;;;23.01;42.48;101657.09;5077485;28;45466;-48
2022/06/10 03:54:23;;;;;;;;;6.25;5.00;;;;;22.98;42.20;101656.41;5077577;28;45397;-48
2022/06/10 03:56:51;;;;;;;;;7.00;4.00;;;;;23.01;42.49;101666.81;5093842;27;45439;-55
2022/06/10 03:59:17;;;;;;;;;3.25;3.25;;;;;23.00;42.29;101660.69;5077577;28;46214;-47
2022/06/10 04:01:42;;;;;;;;;5.50;4.00;;;;;23.00;42.53;101670.38;5059181;28;46009;-47
2022/06/10 04:04:07;;;;;;;;;4.25;4.25;;;;;23.00;42.32;101667.75;5077133;28;46182;-48
2022/06/10 04:06:33;;;;;;;;;4.75;4.75;;;;;23.00;42.37;101670.38;5077637;28;45262;-52
2022/06/10 04:08:58;;;;;;;;;5.50;4.00;;;;;23.00;42.36;101673.91;5077144;28;45423;-54
2022/06/10 04:11:23;;;;;;;;;5.00;5.00;;;;;23.00;42.49;101680.97;5077376;28;45300;-53
2022/06/10 04:13:49;;;;;;;;;2.00;2.00;;;;;22.97;42.21;101671.41;5077488;28;45233;-54
2022/06/10 04:16:14;;;;;;;;;5.50;4.00;;;;;22.99;42.26;101680.13;5077347;28;45635;-54
2022/06/10 04:18:40;;;;;;;;;5.00;4.00;;;;;23.00;42.46;101681.81;5058810;28;48383;-55
2022/06/10 04:21:06;;;;;;;;;4.00;4.00;;;;;23.00;41.97;101684.47;5077075;28;45362;-53
2022/06/10 04:23:32;;;;;;;;;4.50;3.25;;;;;23.00;42.60;101687.13;5077061;28;45352;-55
2022/06/10 04:25:58;;;;;;;;;5.75;5.00;;;;;23.00;42.18;101680.97;5077400;28;45375;-50
2022/06/10 04:28:23;;;;;;;;;5.00;5.00;;;;;23.00;42.44;101691.53;5076747;28;45469;-53
2022/06/10 04:30:51;;;;;;;;;3.00;3.00;;;;;22.99;42.23;101685.41;5077372;28;45295;-52
2022/06/10 04:33:16;;;;;;;;;4.50;4.50;;;;;22.98;42.35;101688.13;5077250;28;45240;-55
2022/06/10 04:35:44;;;;;;;;;6.25;4.00;;;;;22.99;42.14;101687.19;5077245;28;45545;-56
2022/06/10 04:38:12;;;;;;;;;6.00;5.00;;;;;22.98;42.68;101690.78;5076826;28;45291;-55
2022/06/10 04:40:38;;;;;;;;;4.25;3.50;;;;;22.99;42.65;101703.03;5076623;28;45454;-53
2022/06/10 04:43:06;;;;;;;;;5.50;4.50;;;;;22.99;42.31;101692.47;5076823;28;45506;-58
2022/06/10 04:45:39;;;;;;;;;4.00;4.00;;;;;22.99;42.49;101701.25;5077087;28;45264;-52
2022/06/10 04:48:05;;;;;;;;;4.00;4.00;;;;;22.99;42.24;101700.41;5076030;28;46269;-54
2022/06/10 04:50:30;;;;;;;;;3.00;3.00;;;;;22.97;42.19;101695.19;5076685;28;45469;-51
2022/06/10 04:52:57;;;;;;;;;4.50;4.00;;;;;22.99;42.49;101695.09;5076878;28;45288;-50
2022/06/10 04:55:23;;;;;;;;;4.50;4.00;;;;;22.99;42.43;101689.81;5077323;28;45469;-50
2022/06/10 04:57:49;;;;;;;;;4.00;3.00;;;;;23.00;42.63;101691.53;5076972;28;45265;-49
2022/06/10 05:00:22;;;;;;;;;3.00;3.00;;;;;22.99;42.30;101689.81;5058288;28;46004;-49
2022/06/10 05:02:47;;;;;;;;;4.00;4.00;;;;;22.97;42.70;101689.91;5076716;28;45279;-55
2022/06/10 05:05:13;;;;;;;;;3.75;3.50;;;;;22.98;42.73;101688.97;5076842;28;45296;-53
2022/06/10 05:07:38;;;;;;;;;6.25;5.00;;;;;22.98;42.45;101694.28;5076562;28;46099;-53
2022/06/10 05:10:05;;;;;;;;;5.00;5.00;;;;;22.94;42.68;101686.59;5076597;28;45217;-54
2022/06/10 05:12:31;;;;;;;;;8.75;6.00;;;;;22.97;42.59;101689.06;5076409;28;45426;-52
2022/06/10 05:14:56;;;;;;;;;12.50;11.50;;;;;22.98;42.89;101686.34;5076699;28;45439;-55
2022/06/10 05:17:21;;;;;;;;;24.33;23.67;;;;;22.98;42.82;101688.97;5076489;28;52743;-48
2022/06/10 05:19:47;;;;;;;;;19.25;17.00;;;;;22.98;42.98;101691.63;5076315;28;45546;-49
2022/06/10 05:22:14;;;;;;;;;18.25;18.25;;;;;22.99;42.97;101689.81;5076286;28;45396;-51
2022/06/10 05:24:39;;;;;;;;;24.50;23.00;;;;;22.97;43.10;101683.78;5076409;28;45315;-51
2022/06/10 05:27:05;;;;;;;;;25.00;23.00;;;;;22.99;42.75;101693.34;5076146;28;48319;-47
2022/06/10 05:29:30;;;;;;;;;26.50;25.50;;;;;22.99;43.13;101695.97;5076160;28;45330;-47
2022/06/10 05:31:56;;;;;;;;;21.75;20.50;;;;;23.00;42.95;101702.97;5076091;28;45280;-48
2022/06/10 05:37:05;;;;;;;;;19.75;19.00;;;;;23.01;43.08;101699.41;5076102;28;45363;-52
2022/06/10 05:39:30;;;;;;;;;19.00;19.00;;;;;23.02;42.49;101700.25;5075861;28;45785;-51
2022/06/10 05:42:04;;;;;;;;;16.25;14.50;;;;;23.03;42.94;101698.47;5041190;28;46180;-48
2022/06/10 05:44:31;;;;;;;;;15.75;15.50;;;;;23.00;42.88;101696.81;5076388;28;45299;-48
2022/06/10 05:46:56;;;;;;;;;21.25;18.75;;;;;23.01;43.07;101701.19;5057867;28;46718;-48
2022/06/10 05:49:23;;;;;;;;;14.00;14.00;;;;;23.04;43.13;101702.81;5076302;28;45744;-47
2022/06/10 05:51:49;;;;;;;;;16.00;15.00;;;;;23.04;42.75;101705.47;5076121;28;45295;-49
2022/06/10 05:54:15;;;;;;;;;14.00;11.50;;;;;23.03;43.10;101707.25;5076104;28;45212;-51
2022/06/10 05:56:41;;;;;;;;;15.75;14.75;;;;;23.04;43.31;101711.59;5091654;27;45823;-49
2022/06/10 05:59:07;;;;;;;;;12.00;10.25;;;;;23.05;42.98;101723.00;5075763;28;45391;-48
2022/06/10 06:01:32;;;;;;;;;14.25;12.25;;;;;23.05;42.85;101723.00;5078396;28;45423;-50
2022/06/10 06:03:57;;;;;;;;;16.50;11.25;;;;;23.06;42.74;101728.25;5079558;28;45529;-48
2022/06/10 06:06:23;;;;;;;;;11.25;10.75;;;;;23.07;42.78;101723.78;5079344;28;46208;-49
2022/06/10 06:08:48;;;;;;;;;10.75;10.75;;;;;23.08;42.93;101734.31;5079153;28;45387;-48
2022/06/10 06:11:15;;;;;;;;;8.25;8.25;;;;;23.08;42.90;101736.09;5079149;28;45323;-52
2022/06/10 06:13:40;;;;;;;;;10.00;10.00;;;;;23.06;42.81;101744.09;5079320;28;45526;-48
2022/06/10 06:16:06;;;;;;;;;11.00;9.75;;;;;23.07;43.00;101740.53;5078854;28;45993;-47
2022/06/10 06:18:32;;;;;;;;;10.00;10.00;;;;;23.07;42.98;101737.88;5078920;28;45255;-48
2022/06/10 06:20:57;;;;;;;;;8.25;8.25;;;;;23.06;43.19;101741.47;5079522;28;45329;-50
2022/06/10 06:23:22;;;;;;;;;9.00;8.00;;;;;23.09;42.96;101735.16;5079174;28;45246;-46
2022/06/10 06:25:48;;;;;;;;;6.25;6.25;;;;;23.12;43.23;101737.66;5078704;28;46488;-49
2022/06/10 06:28:13;;;;;;;;;6.00;6.00;;;;;23.13;43.00;101740.19;5078886;28;45329;-49
2022/06/10 06:30:38;;;;;;;;;10.00;6.00;;;;;23.13;43.14;101742.84;5060746;28;45416;-51
2022/06/10 06:33:06;;;;;;;;;6.50;6.00;;;;;23.13;43.34;101745.50;5079049;28;45223;-49
2022/06/10 06:35:34;;;;;;;;;6.00;6.00;;;;;23.13;43.10;101740.19;5078742;28;45421;-51
2022/06/10 06:38:01;;;;;;;;;6.75;5.50;;;;;23.14;43.41;101749.00;5078672;28;45441;-49
2022/06/10 06:40:27;;;;;;;;;6.00;6.00;;;;;23.15;43.06;101748.06;5079013;28;45288;-49
2022/06/10 06:42:52;;;;;;;;;7.00;5.00;;;;;23.12;43.17;101738.47;5060711;28;45540;-49
2022/06/10 06:45:19;;;;;;;;;5.75;5.75;;;;;23.13;43.47;101740.19;5078414;28;46261;-51
2022/06/10 06:47:45;;;;;;;;;6.75;5.25;;;;;23.14;43.13;101741.91;5078715;28;45354;-49
2022/06/10 06:50:14;;;;;;;;;5.75;4.00;;;;;23.15;43.02;101743.63;5078661;28;45311;-50
2022/06/10 06:52:40;;;;;;;;;5.50;5.50;;;;;23.16;43.70;101739.19;5078883;28;45368;-50
2022/06/10 06:55:06;;;;;;;;;6.75;6.25;;;;;23.16;43.55;101742.69;5078418;28;45442;-50
2022/06/10 06:57:32;;;;;;;;;5.00;4.75;;;;;23.15;43.27;101738.34;5078402;28;45394;-48
2022/06/10 07:00:06;;;;;;;;;5.25;5.25;;;;;23.17;43.40;101736.47;5078921;28;45342;-49
2022/06/10 07:02:33;;;;;;;;;5.00;4.75;;;;;23.17;42.99;101741.75;5078306;28;45338;-49
2022/06/10 07:04:59;;;;;;;;;6.75;5.25;;;;;23.19;43.14;101738.19;5076787;27;48351;-52
2022/06/10 07:07:24;;;;;;;;;6.25;4.00;;;;;23.21;42.91;101746.91;5077060;28;47902;-48
2022/06/10 07:09:49;;;;;;;;;3.25;3.25;;;;;23.20;43.33;101740.78;5077390;28;45844;-50
2022/06/10 07:12:15;;;;;;;;;2.00;1.00;;;;;23.22;43.18;101746.84;5077253;28;45520;-53
2022/06/10 07:14:40;;;;;;;;;7.75;4.50;;;;;23.25;43.04;101743.16;5076545;28;46215;-53
2022/06/10 07:17:05;;;;;;;;;3.50;3.50;;;;;23.22;43.23;101738.91;5076825;28;45875;-52
2022/06/10 07:19:32;;;;;;;;;3.00;3.00;;;;;23.24;42.99;101736.16;5078565;28;45288;-49
2022/06/10 07:21:58;;;;;;;;;4.00;4.00;;;;;23.26;43.24;101744.88;5078455;28;45439;-49
2022/06/10 07:24:23;;;;;;;;;6.00;3.50;;;;;23.26;42.98;101739.59;5077790;28;45283;-50
2022/06/10 07:26:49;;;;;;;;;3.00;3.00;;;;;23.25;43.18;101736.09;5077979;28;45262;-52
2022/06/10 07:29:14;;;;;;;;;3.00;3.00;;;;;23.26;42.84;101731.66;5078048;28;45374;-56
2022/06/10 07:31:41;;;;;;;;;2.50;2.25;;;;;23.27;42.94;101733.38;5078102;28;45424;-56
2022/06/10 07:34:08;;;;;;;;;3.25;3.25;;;;;23.29;43.17;101750.00;5077697;28;46213;-54
2022/06/10 07:36:35;;;;;;;;;2.25;2.25;;;;;23.31;42.86;101750.78;5077704;28;45679;-51
2022/06/10 07:39:00;;;;;;;;;3.00;2.25;;;;;23.31;42.94;101753.44;5078146;28;45303;-53
2022/06/10 07:44:09;;;;;;;;;3.00;3.00;;;;;23.34;43.03;101763.00;5077659;28;45360;-53
2022/06/10 07:46:35;;;;;;;;;4.00;2.00;;;;;23.35;43.08;101762.06;5077607;28;45273;-49
2022/06/10 07:49:00;;;;;;;;;3.00;3.00;;;;;23.36;42.72;101761.97;5078068;28;45265;-49
2022/06/10 07:51:26;;;;;;;;;3.00;3.00;;;;;23.37;43.01;101754.91;5077880;28;45290;-53
2022/06/10 07:53:51;;;;;;;;;3.75;2.25;;;;;23.38;42.94;101760.09;5077486;28;46046;-50
2022/06/10 07:56:20;;;;;;;;;2.75;2.75;;;;;23.39;42.82;101760.94;5077615;28;45359;-51
2022/06/10 07:58:46;;;;;;;;;3.50;3.50;;;;;23.39;42.87;101756.53;5077482;28;45419;-51
2022/06/10 08:01:11;;;;;;;;;3.00;2.50;;;;;23.40;42.80;101755.59;5077686;28;45451;-54
2022/06/10 08:03:37;;;;;;;;;2.00;2.00;;;;;23.41;42.54;101764.38;5077151;28;47068;-51
2022/06/10 08:06:03;;;;;;;;;0.00;0.00;;;;;23.42;42.79;101758.16;5077514;28;45189;-50
2022/06/10 08:08:28;;;;;;;;;2.75;1.50;;;;;23.41;42.54;101756.44;5076922;28;45277;-51
2022/06/10 08:10:55;;;;;;;;;2.00;2.00;;;;;23.41;42.57;101754.66;5077280;28;45618;-50
2022/06/10 08:13:20;;;;;;;;;3.25;2.00;;;;;23.42;42.55;101751.09;5077107;28;47184;-49
2022/06/10 08:15:46;;;;;;;;;1.75;1.75;;;;;23.42;42.80;101744.91;5077053;28;45272;-51
2022/06/10 08:18:14;;;;;;;;;2.00;2.00;;;;;23.42;43.01;101745.78;5077361;28;45347;-51
2022/06/10 08:23:28;;;;;;;;;2.00;2.00;;;;;23.42;42.61;101748.44;5076159;28;45224;-52
2022/06/10 08:25:55;;;;;;;;;2.00;2.00;;;;;23.37;42.33;101739.88;5058940;28;45772;-54
2022/06/10 08:28:22;;;;;;;;;1.00;1.00;;;;;23.43;42.05;101752.75;5076995;28;45348;-54
2022/06/10 08:30:47;;;;;;;;;2.00;2.00;;;;;23.43;42.49;101754.56;5077171;28;45359;-50
2022/06/10 08:33:14;;;;;;;;;1.00;1.00;;;;;23.45;42.17;101748.25;5076853;28;46150;-49
2022/06/10 13:27:49;;;;;;;;;2.00;2.00;;;;;23.82;43.04;101715.44;5741154;22;46061;-56
2022/06/10 13:30:17;;;;;;;;;2.25;2.25;;;;;23.83;43.01;101711.84;4997436;28;45451;-67
2022/06/10 13:32:49;;;;;;;;;2.25;2.25;;;;;23.83;42.79;101709.19;4997903;28;45530;-67
2022/06/10 13:35:18;;;;;;;;;2.25;2.00;;;;;23.84;42.81;101708.25;4999781;28;45296;-64
2022/06/10 13:37:44;;;;;;;;;3.50;2.00;;;;;23.85;42.65;101712.63;4999359;28;46599;-67
2022/06/10 13:40:20;;;;;;;;;3.00;2.00;;;;;23.85;43.14;101705.53;4999396;28;45340;-63
2022/06/10 13:42:50;;;;;;;;;3.50;3.00;;;;;23.85;43.44;101702.88;4998891;28;45327;-60
2022/06/10 13:45:40;;;;;;;;;3.50;2.75;;;;;23.87;42.90;101705.41;4999588;28;45566;-59
2022/06/10 13:48:15;;;;;;;;;1.50;1.50;;;;;23.88;43.41;101705.34;4999370;28;46352;-56
2022/06/10 13:53:54;;;;;;;;;2.00;2.00;;;;;23.90;42.65;101697.31;4999316;28;45336;-58
2022/06/10 13:56:28;;;;;;;;;2.00;1.75;;;;;23.91;42.64;101701.69;4999307;28;45372;-57
2022/06/10 13:58:56;;;;;;;;;1.75;1.75;;;;;23.92;42.94;101700.75;4999117;28;46215;-58
2022/06/10 14:01:49;;;;;;;;;1.00;1.00;;;;;23.94;43.12;101698.88;4999014;28;45689;-58
2022/06/10 14:04:22;;;;;;;;;2.00;2.00;;;;;23.94;43.19;101693.56;4997826;28;45387;-57
2022/06/10 14:06:52;;;;;;;;;2.00;2.00;;;;;23.96;43.08;101704.97;4999250;28;45307;-60
2022/06/10 14:09:27;;;;;;;;;1.75;1.75;;;;;23.97;43.03;101709.31;4999037;28;45407;-56
2022/06/10 14:11:58;;;;;;;;;2.00;1.00;;;;;23.95;43.28;101703.25;4998881;28;45739;-58
2022/06/10 14:14:23;;;;;;;;;1.75;1.75;;;;;23.98;42.97;101711.00;4999157;28;45963;-60
2022/06/10 14:17:00;;;;;;;;;1.50;1.50;;;;;23.98;43.22;101710.16;4999294;28;45738;-59
2022/06/10 14:19:26;;;;;;;;;1.75;1.75;;;;;23.96;43.13;101698.78;4998836;28;46997;-60
2022/06/10 14:21:52;;;;;;;;;1.75;1.25;;;;;23.95;42.94;101703.25;4997813;28;45193;-58
2022/06/10 14:24:23;;;;;;;;;3.00;1.75;;;;;23.95;43.17;101700.59;4997623;28;45371;-58
2022/06/10 14:26:51;;;;;;;;;1.25;1.25;;;;;23.97;43.29;101693.44;4999268;28;45343;-57
2022/06/10 14:29:21;;;;;;;;;2.00;2.00;;;;;23.99;42.70;101696.81;4998389;28;45495;-58
2022/06/10 14:31:58;;;;;;;;;1.75;1.00;;;;;23.99;42.94;101701.28;4998734;28;45673;-57
2022/06/10 14:34:25;;;;;;;;;1.25;1.25;;;;;23.99;43.14;101704.75;4998813;28;45367;-58
2022/06/10 14:37:17;;;;;;;;;2.00;2.00;;;;;23.98;43.15;101692.47;4999063;28;45367;-58
2022/06/10 14:40:02;;;;;;;;;2.25;2.25;;;;;23.97;43.21;101695.22;4998286;28;45695;-58
2022/06/10 14:42:33;;;;;;;;;5.00;2.00;;;;;23.96;42.82;101689.06;4998569;28;45306;-58
2022/06/10 14:44:59;;;;;;;;;2.00;2.00;;;;;23.95;42.94;101687.38;4998692;28;45290;-58
2022/06/10 14:47:33;;;;;;;;;2.25;2.25;;;;;23.94;43.27;101691.75;4998788;28;45327;-58
2022/06/10 14:50:13;;;;;;;;;2.50;2.00;;;;;23.94;43.32;101685.63;4998116;28;46560;-58
2022/06/10 14:52:57;;;;;;;;;2.00;2.00;;;;;23.94;43.39;101688.28;4997344;28;45765;-58
2022/06/10 14:55:34;;;;;;;;;2.75;2.50;;;;;23.93;43.20;101686.56;4997377;28;45463;-58
2022/06/10 14:58:05;;;;;;;;;3.00;2.00;;;;;23.93;43.34;101689.22;4998891;28;45495;-58
2022/06/10 15:00:33;;;;;;;;;4.00;2.75;;;;;23.93;43.51;101681.25;4998343;28;45398;-58
2022/06/10 15:03:00;;;;;;;;;3.50;2.00;;;;;23.91;43.45;101691.09;4996940;28;45748;-58
2022/06/10 15:08:16;;;;;;;;;2.00;2.00;;;;;23.91;43.22;101685.78;4998879;28;45417;-58
2022/06/10 15:10:44;;;;;;;;;3.25;2.00;;;;;23.88;42.94;101678.00;4998357;28;46553;-57
2022/06/10 15:13:12;;;;;;;;;3.75;1.00;;;;;23.89;43.23;101690.31;4998451;28;45390;-58
2022/06/10 15:15:37;;;;;;;;;3.00;3.00;;;;;23.90;43.25;101694.66;4998540;28;45674;-58
2022/06/10 15:18:03;;;;;;;;;2.50;2.50;;;;;23.90;43.18;101689.38;4998387;28;45661;-58
2022/06/10 15:20:29;;;;;;;;;2.00;2.00;;;;;23.90;42.99;101697.31;4997965;28;45315;-58
2022/06/10 15:22:55;;;;;;;;;3.00;1.00;;;;;23.89;43.02;101693.81;4997900;28;45268;-59
2022/06/10 15:25:25;;;;;;;;;2.00;2.00;;;;;23.89;43.26;101692.97;4998126;28;45354;-58
2022/06/10 15:27:50;;;;;;;;;3.50;2.00;;;;;23.89;43.35;101693.81;4998096;28;45216;-58
2022/06/10 15:30:21;;;;;;;;;3.50;2.00;;;;;23.86;43.15;101682.56;4996510;28;47570;-57
2022/06/10 15:32:46;;;;;;;;;2.75;2.00;;;;;23.89;43.45;101687.66;4997705;28;45381;-57
2022/06/10 15:40:59;;;;;;;;;2.75;2.75;;;;;23.87;43.40;101686.88;4997616;28;45781;-57
2022/06/10 15:43:24;;;;;;;;;3.00;3.00;;;;;23.88;43.80;101688.59;4997449;28;45354;-57
2022/06/10 15:45:49;;;;;;;;;5.00;2.00;;;;;23.88;43.32;101693.91;4997709;28;45295;-57
2022/06/10 15:48:15;;;;;;;;;3.75;3.00;;;;;23.88;43.44;101684.19;4997900;28;45536;-58
2022/06/10 15:50:44;;;;;;;;;2.50;2.50;;;;;23.88;43.50;101688.59;4997637;28;46349;-58
2022/06/10 15:53:15;;;;;;;;;3.50;2.50;;;;;23.87;43.72;101686.88;4997672;28;45201;-57
2022/06/10 15:58:31;;;;;;;;;5.50;3.00;;;;;23.88;43.67;101688.59;4997895;28;45378;-57
2022/06/10 16:00:56;;;;;;;;;3.50;2.75;;;;;23.88;43.86;101681.53;4997369;28;45737;-57
2022/06/10 16:03:22;;;;;;;;;2.00;2.00;;;;;23.88;43.78;101686.81;4997252;28;45247;-59
2022/06/10 16:05:50;;;;;;;;;2.00;2.00;;;;;23.87;44.01;101686.88;4997397;28;45309;-58
2022/06/10 16:08:16;;;;;;;;;3.00;3.00;;;;;23.88;43.91;101683.31;4997534;28;45393;-58
2022/06/10 16:10:45;;;;;;;;;2.75;2.00;;;;;23.89;43.94;101685.00;4997473;28;46668;-59
2022/06/10 16:13:23;;;;;;;;;2.50;2.50;;;;;23.89;43.70;101687.66;4996350;28;45208;-58
2022/06/10 16:15:52;;;;;;;;;3.00;3.00;;;;;23.89;43.90;101677.06;4995912;28;45320;-58
2022/06/10 16:18:19;;;;;;;;;0.00;0.00;;;;;23.89;44.02;101677.06;4997433;28;45362;-58
2022/06/10 16:20:45;;;;;;;;;4.00;4.00;;;;;23.87;44.07;101676.31;4997357;28;46623;-58
2022/06/10 16:23:13;;;;;;;;;4.75;3.00;;;;;23.87;44.12;101678.94;4997117;28;45275;-58
2022/06/10 16:25:44;;;;;;;;;2.50;2.50;;;;;23.87;43.75;101676.31;4997274;28;45237;-58
2022/06/10 16:28:15;;;;;;;;;2.75;2.00;;;;;23.88;44.12;101678.88;4997277;28;45446;-58
2022/06/10 16:30:40;;;;;;;;;2.00;2.00;;;;;23.86;43.79;101671.97;4996754;28;47015;-58
2022/06/10 16:33:06;;;;;;;;;3.00;2.50;;;;;23.87;43.94;101673.66;4996869;28;45308;-58
2022/06/10 16:35:32;;;;;;;;;3.75;2.00;;;;;23.86;44.54;101670.16;4997018;28;45512;-58
2022/06/10 16:37:59;;;;;;;;;3.00;3.00;;;;;23.85;44.46;101671.09;4996930;28;45435;-58
2022/06/10 16:40:28;;;;;;;;;2.50;2.50;;;;;23.86;43.99;101675.47;4996713;28;47089;-58
2022/06/10 16:42:53;;;;;;;;;4.00;4.00;;;;;23.86;44.26;101677.28;4995289;28;45255;-57
2022/06/10 16:45:25;;;;;;;;;3.75;3.00;;;;;23.86;44.86;101674.63;4996073;28;45328;-58
2022/06/10 16:47:52;;;;;;;;;4.25;4.25;;;;;23.89;44.62;101674.44;4997020;28;45383;-57
2022/06/10 16:50:20;;;;;;;;;4.00;3.00;;;;;23.88;44.38;101667.41;4996456;28;46495;-60
2022/06/10 16:52:47;;;;;;;;;4.00;2.75;;;;;23.86;44.95;101670.16;4995736;28;45296;-61
2022/06/10 16:55:14;;;;;;;;;5.00;3.25;;;;;23.86;44.75;101674.63;4997114;28;45410;-61